createdAt,value
2018-04-20T00:02:12.252Z,44.87
2018-04-20T00:04:39.626Z,37.77
2018-04-20T00:07:07.027Z,43.97
2018-04-20T00:09:34.602Z,43.67
2018-04-20T00:12:02.047Z,47.13
2018-04-20T00:14:30.452Z,39.70
2018-04-20T00:16:57.884Z,39.63
2018-04-20T00:19:26.086Z,44.60
2018-04-20T00:21:54.256Z,45.77
2018-04-20T00:24:21.665Z,41.73
2018-04-20T00:26:49.130Z,51.73
2018-04-20T00:29:17.297Z,50.33
2018-04-20T00:31:44.749Z,45.13
2018-04-20T00:34:13.010Z,53.00
2018-04-20T00:36:40.427Z,46.17
2018-04-20T00:39:07.843Z,48.40
2018-04-20T00:41:35.431Z,49.73
2018-04-20T00:44:03.617Z,46.50
2018-04-20T00:46:31.036Z,50.90
2018-04-20T00:48:58.459Z,46.83
2018-04-20T00:51:26.665Z,52.53
2018-04-20T00:54:06.836Z,47.97
2018-04-20T00:56:35.018Z,50.60
2018-04-20T00:59:03.193Z,55.50
2018-04-20T01:01:31.382Z,49.10
2018-04-20T01:04:00.491Z,53.93
2018-04-20T01:06:28.706Z,46.37
2018-04-20T01:08:56.159Z,52.13
2018-04-20T01:11:24.336Z,46.90
2018-04-20T01:13:52.521Z,48.73
2018-04-20T01:16:20.732Z,49.17
2018-04-20T01:18:48.165Z,48.93
2018-04-20T01:21:15.594Z,50.72
2018-04-20T01:23:43.017Z,50.57
2018-04-20T01:26:10.430Z,51.13
2018-04-20T01:28:37.868Z,49.53
2018-04-20T01:31:05.316Z,56.00
2018-04-20T01:33:33.492Z,52.30
2018-04-20T01:36:00.931Z,44.97
2018-04-20T01:38:28.350Z,51.10
2018-04-20T01:40:55.760Z,47.97
2018-04-20T01:43:23.189Z,43.00
2018-04-20T01:45:51.386Z,53.00
2018-04-20T01:48:18.781Z,44.30
2018-04-20T01:50:46.209Z,49.03
2018-04-20T01:53:13.629Z,45.43
2018-04-20T01:55:41.081Z,44.63
2018-04-20T01:58:08.475Z,52.70
2018-04-20T02:00:35.911Z,43.50
2018-04-20T02:03:03.337Z,45.27
2018-04-20T02:05:32.073Z,45.28
2018-04-20T02:07:59.491Z,58.40
2018-04-20T02:10:27.709Z,40.90
2018-04-20T02:12:55.208Z,46.53
2018-04-20T02:15:22.636Z,44.53
2018-04-20T02:17:50.812Z,49.93
2018-04-20T02:20:18.997Z,47.50
2018-04-20T02:22:47.189Z,45.10
2018-04-20T02:25:15.383Z,42.93
2018-04-20T02:27:43.588Z,42.57
2018-04-20T02:30:11.012Z,51.73
2018-04-20T02:32:38.452Z,46.50
2018-04-20T02:35:05.869Z,45.10
2018-04-20T02:37:34.074Z,43.83
2018-04-20T02:40:02.687Z,45.28
2018-04-20T02:42:30.100Z,48.43
2018-04-20T02:44:57.533Z,50.13
2018-04-20T02:47:24.961Z,48.93
2018-04-20T02:49:52.388Z,51.23
2018-04-20T02:52:19.812Z,51.10
2018-04-20T02:54:47.285Z,49.83
2018-04-20T02:57:15.453Z,47.23
2018-04-20T02:59:42.884Z,49.10
2018-04-20T03:02:10.316Z,51.33
2018-04-20T03:04:37.733Z,59.10
2018-04-20T03:07:05.171Z,46.17
2018-04-20T03:09:32.595Z,45.80
2018-04-20T03:12:00.791Z,45.53
2018-04-20T03:14:28.216Z,49.63
2018-04-20T03:16:57.150Z,53.77
2018-04-20T03:19:25.334Z,52.37
2018-04-20T03:21:53.533Z,51.30
2018-04-20T03:24:20.985Z,47.03
2018-04-20T03:26:48.579Z,53.87
2018-04-20T03:29:15.997Z,43.47
2018-04-20T03:31:43.428Z,53.87
2018-04-20T03:34:10.843Z,52.10
2018-04-20T03:36:38.290Z,50.70
2018-04-20T03:39:05.712Z,51.50
2018-04-20T03:41:33.197Z,52.67
2018-04-20T03:44:01.353Z,54.27
2018-04-20T03:46:29.609Z,49.43
2018-04-20T03:48:57.020Z,58.47
2018-04-20T03:51:25.216Z,48.90
2018-04-20T03:53:52.648Z,50.23
2018-04-20T03:56:20.099Z,51.07
2018-04-20T03:58:47.588Z,48.90
2018-04-20T04:01:15.305Z,49.87
2018-04-20T04:03:43.469Z,50.90
2018-04-20T04:06:11.680Z,53.40
2018-04-20T04:08:39.100Z,50.00
2018-04-20T04:11:08.042Z,54.27
2018-04-20T04:13:35.462Z,57.00
2018-04-20T04:16:03.992Z,57.00
2018-04-20T04:18:43.168Z,57.50
2018-04-20T04:21:22.720Z,50.70
2018-04-20T04:24:02.116Z,50.20
2018-04-20T04:26:41.245Z,54.70
2018-04-20T04:29:08.759Z,59.90
2018-04-20T04:31:36.213Z,62.03
2018-04-20T04:34:04.413Z,65.63
2018-04-20T04:36:31.887Z,55.60
2018-04-20T04:39:00.052Z,65.40
2018-04-20T04:41:27.472Z,68.13
2018-04-20T04:43:54.888Z,54.23
2018-04-20T04:46:23.095Z,52.90
2018-04-20T04:48:51.284Z,51.97
2018-04-20T04:51:19.488Z,58.00
2018-04-20T04:53:47.060Z,59.10
2018-04-20T04:56:14.940Z,66.57
2018-04-20T04:58:42.416Z,55.00
2018-04-20T05:01:09.819Z,55.60
2018-04-20T05:03:37.266Z,58.43
2018-04-20T05:06:04.737Z,60.03
2018-04-20T05:08:32.187Z,59.07
2018-04-20T05:10:59.618Z,60.13
2018-04-20T05:13:27.801Z,56.30
2018-04-20T05:15:56.049Z,54.63
2018-04-20T05:18:23.473Z,57.37
2018-04-20T05:20:50.920Z,56.85
2018-04-20T05:23:18.333Z,55.30
2018-04-20T05:25:45.761Z,64.23
2018-04-20T05:28:13.193Z,52.30
2018-04-20T05:30:40.600Z,61.27
2018-04-20T05:33:08.787Z,54.70
2018-04-20T05:35:36.981Z,57.33
2018-04-20T05:38:04.552Z,54.92
2018-04-20T05:40:32.772Z,55.00
2018-04-20T05:43:00.209Z,57.93
2018-04-20T05:45:28.425Z,62.07
2018-04-20T05:47:55.842Z,54.50
2018-04-20T05:50:23.328Z,72.17
2018-04-20T05:52:51.556Z,53.13
2018-04-20T05:55:18.994Z,52.03
2018-04-20T05:57:47.173Z,55.73
2018-04-20T06:00:15.353Z,53.27
2018-04-20T06:02:43.548Z,56.90
2018-04-20T06:05:11.728Z,57.83
2018-04-20T06:07:39.912Z,62.80
2018-04-20T06:10:08.107Z,56.03
2018-04-20T06:12:36.324Z,58.30
2018-04-20T06:15:03.759Z,61.70
2018-04-20T06:17:31.965Z,58.53
2018-04-20T06:19:59.388Z,59.13
2018-04-20T06:22:26.821Z,52.63
2018-04-20T06:24:54.238Z,54.83
2018-04-20T06:27:21.656Z,51.63
2018-04-20T06:29:49.096Z,63.73
2018-04-20T06:32:16.554Z,65.50
2018-04-20T06:34:44.744Z,50.73
2018-04-20T06:37:12.933Z,52.60
2018-04-20T06:39:41.117Z,69.07
2018-04-20T06:42:09.302Z,49.97
2018-04-20T06:44:37.498Z,58.63
2018-04-20T06:47:06.449Z,50.78
2018-04-20T06:49:33.875Z,50.97
2018-04-20T06:52:01.310Z,52.23
2018-04-20T06:54:28.730Z,60.53
2018-04-20T06:56:56.193Z,47.93
2018-04-20T06:59:23.619Z,45.87
2018-04-20T07:01:51.049Z,42.07
2018-04-20T07:04:18.472Z,46.50
2018-04-20T07:06:45.884Z,43.23
2018-04-20T07:09:13.322Z,50.27
2018-04-20T07:11:40.745Z,48.00
2018-04-20T07:14:08.299Z,42.17
2018-04-20T07:16:36.863Z,43.33
2018-04-20T07:19:04.320Z,41.00
2018-04-20T07:21:31.776Z,42.10
2018-04-20T07:24:00.007Z,38.87
2018-04-20T07:26:27.611Z,40.00
2018-04-20T07:28:55.070Z,37.77
2018-04-20T07:31:22.504Z,45.70
2018-04-20T07:33:49.994Z,41.50
2018-04-20T07:36:17.438Z,40.53
2018-04-20T07:38:44.896Z,35.10
2018-04-20T07:41:12.338Z,39.40
2018-04-20T07:43:39.780Z,38.00
2018-04-20T07:46:07.186Z,38.40
2018-04-20T07:48:35.384Z,35.80
2018-04-20T07:51:03.610Z,33.50
2018-04-20T07:53:31.049Z,45.03
2018-04-20T07:55:58.480Z,36.87
2018-04-20T07:58:25.901Z,33.87
2018-04-20T08:00:53.319Z,34.80
2018-04-20T08:03:20.836Z,31.98
2018-04-20T08:05:48.232Z,34.67
2018-04-20T08:08:15.697Z,36.53
2018-04-20T08:10:43.083Z,38.50
2018-04-20T08:13:10.528Z,30.57
2018-04-20T08:15:37.928Z,30.63
2018-04-20T08:18:05.443Z,30.53
2018-04-20T08:20:33.612Z,29.43
2018-04-20T08:23:01.045Z,25.43
2018-04-20T08:25:28.499Z,32.40
2018-04-20T08:27:55.949Z,25.37
2018-04-20T08:30:23.412Z,31.05
2018-04-20T08:32:50.953Z,30.30
2018-04-20T08:35:19.143Z,25.53
2018-04-20T08:37:46.737Z,26.00
2018-04-20T08:40:14.163Z,35.80
2018-04-20T08:42:41.593Z,32.33
2018-04-20T08:45:09.054Z,30.10
2018-04-20T08:47:36.469Z,37.93
2018-04-20T08:50:03.900Z,21.37
2018-04-20T08:52:31.328Z,26.50
2018-04-20T08:54:58.782Z,28.03
2018-04-20T08:57:26.288Z,32.00
2018-04-20T08:59:53.775Z,24.43
2018-04-20T09:02:21.236Z,22.00
2018-04-20T09:04:49.691Z,26.70
2018-04-20T09:07:17.873Z,24.17
2018-04-20T09:09:45.400Z,24.40
2018-04-20T09:12:12.814Z,58.10
2018-04-20T09:14:41.016Z,35.13
2018-04-20T09:17:09.197Z,19.13
2018-04-20T09:19:38.320Z,16.43
2018-04-20T09:22:05.751Z,25.23
2018-04-20T09:24:33.207Z,20.90
2018-04-20T09:27:00.725Z,17.93
2018-04-20T09:29:28.880Z,14.70
2018-04-20T09:31:57.073Z,18.53
2018-04-20T09:34:25.349Z,26.05
2018-04-20T09:36:52.682Z,16.67
2018-04-20T09:39:20.117Z,23.50
2018-04-20T09:41:47.565Z,12.47
2018-04-20T09:44:15.764Z,11.00
2018-04-20T09:46:43.189Z,22.93
2018-04-20T09:49:10.616Z,12.93
2018-04-20T09:51:38.721Z,12.53
2018-04-20T09:54:06.173Z,11.33
2018-04-20T09:56:33.636Z,10.67
2018-04-20T09:59:01.083Z,14.37
2018-04-20T10:01:29.292Z,14.00
2018-04-20T10:03:56.752Z,17.87
2018-04-20T10:06:24.327Z,9.30
2018-04-20T10:08:52.540Z,12.77
2018-04-20T10:11:19.998Z,16.50
2018-04-20T10:13:47.424Z,13.50
2018-04-20T10:16:15.641Z,16.00
2018-04-20T10:18:43.845Z,9.93
2018-04-20T10:21:11.254Z,13.27
2018-04-20T10:23:40.068Z,11.60
2018-04-20T10:26:08.243Z,11.60
2018-04-20T10:28:35.676Z,15.90
2018-04-20T10:31:03.251Z,13.00
2018-04-20T10:33:30.650Z,18.90
2018-04-20T10:35:58.863Z,15.37
2018-04-20T10:38:26.294Z,12.43
2018-04-20T10:40:53.725Z,12.90
2018-04-20T10:43:21.134Z,15.07
2018-04-20T10:45:48.569Z,12.80
2018-04-20T10:48:16.036Z,17.13
2018-04-20T10:50:43.444Z,18.70
2018-04-20T10:53:11.626Z,13.90
2018-04-20T10:55:39.976Z,14.37
2018-04-20T10:58:07.407Z,15.80
2018-04-20T11:00:35.594Z,14.90
2018-04-20T11:03:03.025Z,13.20
2018-04-20T11:05:30.495Z,18.90
2018-04-20T11:07:57.955Z,19.90
2018-04-20T11:10:25.366Z,11.43
2018-04-20T11:12:53.561Z,16.87
2018-04-20T11:15:21.002Z,14.30
2018-04-20T11:17:48.505Z,18.70
2018-04-20T11:20:15.924Z,19.50
2018-04-20T11:22:43.437Z,16.13
2018-04-20T11:25:10.853Z,13.23
2018-04-20T11:27:38.290Z,19.63
2018-04-20T11:30:05.756Z,19.73
2018-04-20T11:32:33.192Z,17.10
2018-04-20T11:35:01.418Z,16.43
2018-04-20T11:37:28.813Z,19.77
2018-04-20T11:39:56.240Z,20.37
2018-04-20T11:42:23.649Z,17.50
2018-04-20T11:44:51.088Z,24.47
2018-04-20T11:47:18.558Z,14.40
2018-04-20T11:49:46.727Z,16.02
2018-04-20T11:52:14.140Z,18.70
2018-04-20T11:54:41.584Z,19.73
2018-04-20T11:57:09.054Z,14.63
2018-04-20T11:59:36.466Z,14.97
2018-04-20T12:02:03.981Z,17.63
2018-04-20T12:04:31.490Z,21.70
2018-04-20T12:06:58.893Z,14.97
2018-04-20T12:09:27.222Z,28.70
2018-04-20T12:11:54.665Z,19.73
2018-04-20T12:14:22.832Z,19.33
2018-04-20T12:16:51.055Z,23.80
2018-04-20T12:19:18.516Z,18.60
2018-04-20T12:21:46.699Z,18.13
2018-04-20T12:24:14.152Z,19.40
2018-04-20T12:26:42.339Z,28.07
2018-04-20T12:29:11.468Z,22.50
2018-04-20T12:31:38.888Z,17.40
2018-04-20T12:34:06.419Z,20.57
2018-04-20T12:36:34.577Z,26.00
2018-04-20T12:39:02.028Z,16.87
2018-04-20T12:41:29.431Z,23.73
2018-04-20T12:43:56.863Z,22.73
2018-04-20T12:46:25.063Z,18.20
2018-04-20T12:48:53.257Z,16.97
2018-04-20T12:51:21.625Z,21.20
2018-04-20T12:53:49.133Z,18.93
2018-04-20T12:56:16.559Z,21.67
2018-04-20T12:58:43.995Z,19.37
2018-04-20T13:01:12.871Z,23.87
2018-04-20T13:03:41.972Z,21.80
2018-04-20T13:06:09.470Z,20.43
2018-04-20T13:08:36.884Z,25.17
2018-04-20T13:11:05.315Z,28.43
2018-04-20T13:13:32.742Z,25.83
2018-04-20T13:16:00.201Z,20.83
2018-04-20T13:18:27.637Z,21.80
2018-04-20T13:20:55.093Z,23.20
2018-04-20T13:23:22.547Z,21.13
2018-04-20T13:25:50.726Z,20.67
2018-04-20T13:28:18.178Z,21.10
2018-04-20T13:30:46.369Z,17.33
2018-04-20T13:33:14.550Z,21.10
2018-04-20T13:35:43.594Z,23.03
2018-04-20T13:38:10.998Z,31.03
2018-04-20T13:40:38.441Z,26.10
2018-04-20T13:43:05.889Z,22.47
2018-04-20T13:45:33.358Z,21.33
2018-04-20T13:48:00.805Z,28.10
2018-04-20T13:50:29.004Z,25.13
2018-04-20T13:52:57.198Z,27.17
2018-04-20T13:55:24.632Z,25.50
2018-04-20T13:57:52.140Z,34.50
2018-04-20T14:00:19.616Z,25.60
2018-04-20T14:02:47.057Z,34.93
2018-04-20T14:05:15.264Z,29.70
2018-04-20T14:07:43.431Z,27.60
2018-04-20T14:10:11.627Z,36.83
2018-04-20T14:12:39.061Z,23.20
2018-04-20T14:15:06.574Z,24.37
2018-04-20T14:17:34.009Z,18.80
2018-04-20T14:20:01.536Z,24.23
2018-04-20T14:22:28.988Z,29.00
2018-04-20T14:24:56.393Z,22.87
2018-04-20T14:27:23.813Z,17.13
2018-04-20T14:29:51.263Z,18.77
2018-04-20T14:32:19.455Z,22.87
2018-04-20T14:34:47.652Z,22.63
2018-04-20T14:37:15.141Z,16.03
2018-04-20T14:39:42.666Z,18.47
2018-04-20T14:42:10.086Z,19.10
2018-04-20T14:44:37.569Z,16.83
2018-04-20T14:47:04.980Z,21.13
2018-04-20T14:49:33.216Z,16.57
2018-04-20T14:52:00.668Z,24.03
2018-04-20T14:54:28.486Z,19.73
2018-04-20T14:56:55.990Z,18.87
2018-04-20T14:59:24.237Z,18.23
2018-04-20T15:01:51.674Z,18.53
2018-04-20T15:04:19.080Z,22.37
2018-04-20T15:06:46.577Z,21.23
2018-04-20T15:09:15.415Z,21.07
2018-04-20T15:11:42.876Z,15.40
2018-04-20T15:14:10.453Z,17.33
2018-04-20T15:16:38.633Z,21.33
2018-04-20T15:19:06.123Z,17.77
2018-04-20T15:21:33.563Z,16.60
2018-04-20T15:24:01.790Z,17.27
2018-04-20T15:26:29.233Z,19.27
2018-04-20T15:28:57.550Z,15.37
2018-04-20T15:31:25.093Z,14.37
2018-04-20T15:33:52.665Z,17.63
2018-04-20T15:36:20.874Z,16.93
2018-04-20T15:38:48.301Z,19.10
2018-04-20T15:41:16.512Z,15.20
2018-04-20T15:43:44.078Z,13.13
2018-04-20T15:46:12.510Z,21.30
2018-04-20T15:48:39.956Z,13.07
2018-04-20T15:51:07.473Z,14.63
2018-04-20T15:53:34.901Z,15.00
2018-04-20T15:56:02.363Z,10.83
2018-04-20T15:58:29.821Z,12.03
2018-04-20T16:00:57.275Z,15.80
2018-04-20T16:03:25.478Z,17.77
2018-04-20T16:05:52.951Z,16.02
2018-04-20T16:08:20.366Z,14.30
2018-04-20T16:10:48.560Z,17.47
2018-04-20T16:13:16.001Z,22.83
2018-04-20T16:15:43.485Z,14.87
2018-04-20T16:18:10.839Z,15.50
2018-04-20T16:20:38.411Z,12.27
2018-04-20T16:23:06.189Z,16.17
2018-04-20T16:25:34.483Z,14.43
2018-04-20T16:28:01.940Z,16.43
2018-04-20T16:30:29.437Z,13.83
2018-04-20T16:32:56.874Z,17.63
2018-04-20T16:35:24.335Z,13.00
2018-04-20T16:37:51.771Z,13.70
2018-04-20T16:40:19.992Z,13.43
2018-04-20T16:42:47.414Z,16.40
2018-04-20T16:45:16.513Z,14.33
2018-04-20T16:47:44.704Z,14.00
2018-04-20T16:50:12.881Z,17.47
2018-04-20T16:52:40.328Z,14.07
2018-04-20T16:55:07.796Z,10.90
2018-04-20T16:57:35.215Z,16.57
2018-04-20T17:00:03.410Z,14.77
2018-04-20T17:02:30.876Z,18.77
2018-04-20T17:04:58.353Z,16.07
2018-04-20T17:07:25.796Z,24.63
2018-04-20T17:09:53.312Z,18.33
2018-04-20T17:12:20.728Z,15.63
2018-04-20T17:14:48.929Z,16.40
2018-04-20T17:17:17.823Z,20.03
2018-04-20T17:19:46.930Z,24.53
2018-04-20T17:22:15.124Z,24.13
2018-04-20T17:24:43.304Z,15.43
2018-04-20T17:27:11.492Z,19.07
2018-04-20T17:29:39.681Z,28.20
2018-04-20T17:32:07.897Z,19.87
2018-04-20T17:34:35.329Z,17.40
2018-04-20T17:37:03.553Z,20.23
2018-04-20T17:39:31.023Z,21.00
2018-04-20T17:41:58.443Z,16.73
2018-04-20T17:44:26.641Z,16.73
2018-04-20T17:46:54.857Z,25.60
2018-04-20T17:49:22.317Z,17.47
2018-04-20T17:51:49.804Z,16.20
2018-04-20T17:54:18.566Z,20.00
2018-04-20T17:56:47.665Z,19.40
2018-04-20T17:59:15.081Z,15.57
2018-04-20T18:01:42.547Z,18.30
2018-04-20T18:04:09.961Z,20.73
2018-04-20T18:06:37.408Z,20.87
2018-04-20T18:09:04.940Z,24.87
2018-04-20T18:11:32.439Z,24.10
2018-04-20T18:13:59.857Z,23.20
2018-04-20T18:16:28.035Z,24.40
2018-04-20T18:18:56.236Z,26.33
2018-04-20T18:21:23.692Z,23.20
2018-04-20T18:23:51.172Z,18.30
2018-04-20T18:26:19.349Z,24.80
2018-04-20T18:28:48.465Z,31.70
2018-04-20T18:31:16.661Z,22.20
2018-04-20T18:33:44.887Z,21.10
2018-04-20T18:36:12.301Z,28.37
2018-04-20T18:38:40.518Z,26.90
2018-04-20T18:41:07.981Z,29.47
2018-04-20T18:43:35.461Z,24.97
2018-04-20T18:46:02.917Z,24.13
2018-04-20T18:48:30.387Z,35.37
2018-04-20T18:50:57.861Z,30.77
2018-04-20T18:53:25.287Z,30.53
2018-04-20T18:55:52.802Z,27.83
2018-04-20T18:58:20.205Z,43.50
2018-04-20T19:00:47.733Z,32.47
2018-04-20T19:03:15.209Z,31.10
2018-04-20T19:05:42.648Z,26.83
2018-04-20T19:08:10.846Z,27.43
2018-04-20T19:10:39.024Z,22.77
2018-04-20T19:13:07.258Z,30.43
2018-04-20T19:15:34.680Z,29.73
2018-04-20T19:18:02.909Z,35.47
2018-04-20T19:20:31.198Z,40.47
2018-04-20T19:22:58.744Z,35.27
2018-04-20T19:25:26.925Z,34.07
2018-04-20T19:27:54.376Z,36.67
2018-04-20T19:30:22.574Z,34.73
2018-04-20T19:32:50.874Z,29.50
2018-04-20T19:35:20.021Z,38.80
2018-04-20T19:37:47.425Z,36.67
2018-04-20T19:40:15.638Z,37.60
2018-04-20T19:42:43.216Z,38.93
2018-04-20T19:45:10.652Z,32.80
2018-04-20T19:47:38.860Z,37.57
2018-04-20T19:50:06.301Z,33.90
2018-04-20T19:52:34.493Z,38.67
2018-04-20T19:55:02.685Z,35.93
2018-04-20T19:57:30.893Z,29.60
2018-04-20T19:59:58.316Z,35.33
2018-04-20T20:02:25.745Z,38.40
2018-04-20T20:04:53.199Z,34.87
2018-04-20T20:07:21.397Z,34.20
2018-04-20T20:09:48.829Z,30.97
2018-04-20T20:12:16.249Z,37.97
2018-04-20T20:14:43.705Z,34.67
2018-04-20T20:17:11.134Z,38.47
2018-04-20T20:19:39.369Z,39.03
2018-04-20T20:22:06.830Z,38.40
2018-04-20T20:24:34.256Z,37.87
2018-04-20T20:27:02.502Z,36.83
2018-04-20T20:29:29.913Z,29.53
2018-04-20T20:31:58.110Z,32.93
2018-04-20T20:34:25.585Z,33.70
2018-04-20T20:36:53.759Z,29.43
2018-04-20T20:39:21.953Z,33.37
2018-04-20T20:41:51.121Z,40.33
2018-04-20T20:44:18.757Z,32.50
2018-04-20T20:46:46.214Z,41.17
2018-04-20T20:49:14.408Z,41.00
2018-04-20T20:51:41.852Z,41.33
2018-04-20T20:54:10.052Z,40.10
2018-04-20T20:56:37.511Z,46.63
2018-04-20T20:59:05.688Z,36.23
2018-04-20T21:01:34.275Z,42.80
2018-04-20T21:04:01.729Z,53.23
2018-04-20T21:06:29.161Z,36.63
2018-04-20T21:08:56.603Z,39.83
2018-04-20T21:11:24.185Z,40.37
2018-04-20T21:13:52.456Z,39.20
2018-04-20T21:16:21.573Z,37.17
2018-04-20T21:18:49.753Z,45.67
2018-04-20T21:21:17.928Z,39.90
2018-04-20T21:23:46.145Z,40.20
2018-04-20T21:26:13.621Z,46.07
2018-04-20T21:28:41.805Z,38.20
2018-04-20T21:31:09.244Z,40.27
2018-04-20T21:33:37.433Z,43.23
2018-04-20T21:36:04.870Z,41.73
2018-04-20T21:38:33.265Z,42.53
2018-04-20T21:41:00.691Z,40.87
2018-04-20T21:43:28.159Z,46.77
2018-04-20T21:45:55.609Z,36.87
2018-04-20T21:48:23.880Z,38.17
2018-04-20T21:50:53.015Z,42.07
2018-04-20T21:53:20.472Z,36.87
2018-04-20T21:55:47.940Z,42.43
2018-04-20T21:58:15.369Z,55.03
2018-04-20T22:00:42.829Z,39.10
2018-04-20T22:03:10.311Z,47.17
2018-04-20T22:05:37.922Z,47.42
2018-04-20T22:08:05.411Z,44.27
2018-04-20T22:10:32.920Z,41.43
2018-04-20T22:13:00.428Z,44.13
2018-04-20T22:15:27.890Z,38.43
2018-04-20T22:17:55.365Z,47.13
2018-04-20T22:20:23.208Z,44.25
2018-04-20T22:22:50.659Z,47.37
2018-04-20T22:25:18.100Z,43.40
2018-04-20T22:27:45.616Z,58.33
2018-04-20T22:30:13.063Z,54.43
2018-04-20T22:32:40.545Z,50.67
2018-04-20T22:35:07.974Z,51.53
2018-04-20T22:37:36.227Z,54.63
2018-04-20T22:40:03.672Z,52.03
2018-04-20T22:42:31.114Z,62.70
2018-04-20T22:44:59.312Z,56.30
2018-04-20T22:47:27.617Z,51.10
2018-04-20T22:49:55.090Z,55.10
2018-04-20T22:52:23.427Z,62.30
2018-04-20T22:54:50.990Z,58.77
2018-04-20T22:57:18.473Z,53.10
2018-04-20T22:59:45.913Z,58.13
2018-04-20T23:02:13.432Z,59.03
2018-04-20T23:04:40.868Z,61.40
2018-04-20T23:07:08.398Z,53.40
2018-04-20T23:09:36.611Z,54.20
2018-04-20T23:12:04.314Z,60.97
2018-04-20T23:14:32.755Z,66.87
2018-04-20T23:17:00.981Z,60.15
2018-04-20T23:19:28.456Z,66.90
2018-04-20T23:21:55.896Z,60.07
2018-04-20T23:24:24.689Z,55.47
2018-04-20T23:26:53.901Z,63.70
2018-04-20T23:29:21.336Z,61.03
2018-04-20T23:31:48.783Z,60.90
2018-04-20T23:34:16.244Z,66.10
2018-04-20T23:36:43.677Z,58.17
2018-04-20T23:39:11.908Z,64.83
2018-04-20T23:41:39.332Z,59.90
2018-04-20T23:44:07.533Z,59.00
2018-04-20T23:46:35.737Z,49.83
2018-04-20T23:49:03.242Z,55.27
2018-04-20T23:51:30.703Z,58.80
2018-04-20T23:53:58.125Z,50.50
2018-04-20T23:56:26.325Z,53.80
2018-04-20T23:58:55.235Z,52.50
